createdAt,value
2023-05-12T00:01:37.705Z,13.40
2023-05-12T00:04:06.091Z,13.40
2023-05-12T00:06:34.355Z,13.40
2023-05-12T00:09:02.307Z,13.40
2023-05-12T00:11:30.280Z,13.40
2023-05-12T00:13:58.499Z,13.40
2023-05-12T00:16:26.579Z,13.30
2023-05-12T00:18:54.691Z,13.30
2023-05-12T00:21:22.993Z,13.30
2023-05-12T00:23:50.925Z,13.30
2023-05-12T00:26:18.903Z,13.30
2023-05-12T00:28:49.130Z,13.30
2023-05-12T00:31:17.431Z,13.30
2023-05-12T00:33:45.376Z,13.20
2023-05-12T00:36:13.322Z,13.20
2023-05-12T00:38:41.774Z,13.20
2023-05-12T00:41:09.800Z,13.20
2023-05-12T00:43:37.972Z,13.10
2023-05-12T00:46:06.683Z,13.10
2023-05-12T00:48:34.859Z,13.10
2023-05-12T00:51:03.593Z,13.10
2023-05-12T00:53:44.959Z,13.00
2023-05-12T00:56:18.325Z,13.00
2023-05-12T00:58:47.403Z,13.00
2023-05-12T01:01:16.830Z,13.00
2023-05-12T01:03:46.717Z,12.90
2023-05-12T01:06:21.016Z,12.90
2023-05-12T01:08:50.261Z,12.90
2023-05-12T01:11:19.436Z,12.90
2023-05-12T01:13:47.420Z,12.80
2023-05-12T01:16:16.602Z,12.80
2023-05-12T01:18:50.437Z,12.80
2023-05-12T01:21:19.829Z,12.70
2023-05-12T01:23:57.598Z,12.70
2023-05-12T01:26:30.341Z,12.70
2023-05-12T01:28:59.122Z,12.60
2023-05-12T01:31:28.291Z,12.60
2023-05-12T01:33:56.787Z,12.60
2023-05-12T01:36:25.705Z,12.60
2023-05-12T01:38:53.819Z,12.50
2023-05-12T01:41:22.034Z,12.50
2023-05-12T01:43:50.004Z,12.50
2023-05-12T01:46:18.952Z,12.40
2023-05-12T01:48:47.196Z,12.40
2023-05-12T01:51:16.843Z,12.40
2023-05-12T01:53:44.819Z,12.40
2023-05-12T01:56:13.306Z,12.30
2023-05-12T01:58:41.263Z,12.30
2023-05-12T02:01:09.570Z,12.30
2023-05-12T02:03:38.598Z,12.30
2023-05-12T02:06:12.127Z,12.30
2023-05-12T02:08:40.497Z,12.30
2023-05-12T02:11:09.556Z,12.30
2023-05-12T02:13:37.597Z,12.30
2023-05-12T02:16:06.201Z,12.20
2023-05-12T02:18:34.316Z,12.20
2023-05-12T02:21:02.582Z,12.10
2023-05-12T02:23:30.704Z,12.10
2023-05-12T02:25:59.489Z,12.10
2023-05-12T02:28:27.481Z,12.10
2023-05-12T02:30:56.018Z,12.00
2023-05-12T02:33:24.005Z,12.00
2023-05-12T02:35:52.154Z,11.90
2023-05-12T02:38:20.322Z,11.90
2023-05-12T02:40:48.591Z,11.90
2023-05-12T02:43:20.111Z,11.90
2023-05-12T02:45:48.301Z,11.90
2023-05-12T02:48:16.496Z,11.90
2023-05-12T02:50:44.675Z,11.90
2023-05-12T02:53:12.717Z,11.90
2023-05-12T02:55:40.669Z,11.90
2023-05-12T02:58:08.657Z,11.80
2023-05-12T03:00:36.650Z,11.80
2023-05-12T03:03:05.026Z,11.80
2023-05-12T03:05:33.130Z,11.80
2023-05-12T03:08:01.722Z,11.70
2023-05-12T03:10:29.956Z,11.70
2023-05-12T03:12:57.956Z,11.70
2023-05-12T03:15:25.869Z,11.70
2023-05-12T03:17:54.083Z,11.70
2023-05-12T03:20:22.358Z,11.70
2023-05-12T03:22:50.765Z,11.70
2023-05-12T03:25:18.781Z,11.80
2023-05-12T03:27:46.844Z,11.70
2023-05-12T03:30:14.964Z,11.80
2023-05-12T03:32:43.245Z,11.80
2023-05-12T03:35:12.475Z,11.80
2023-05-12T03:37:40.659Z,11.80
2023-05-12T03:40:09.798Z,11.80
2023-05-12T03:42:37.733Z,11.90
2023-05-12T03:45:07.520Z,11.90
2023-05-12T03:47:36.565Z,11.90
2023-05-12T03:50:04.751Z,11.90
2023-05-12T03:52:33.096Z,11.90
2023-05-12T03:55:02.526Z,11.90
2023-05-12T03:57:30.824Z,12.00
2023-05-12T03:59:58.800Z,12.00
2023-05-12T04:02:27.493Z,12.00
2023-05-12T04:04:56.025Z,12.00
2023-05-12T04:07:24.119Z,12.10
2023-05-12T04:09:52.174Z,12.00
2023-05-12T04:12:20.164Z,12.10
2023-05-12T04:14:48.792Z,12.10
2023-05-12T04:17:19.068Z,12.10
2023-05-12T04:19:47.322Z,12.10
2023-05-12T04:22:15.438Z,12.20
2023-05-12T04:24:43.596Z,12.20
2023-05-12T04:27:11.645Z,12.30
2023-05-12T04:29:39.831Z,12.30
2023-05-12T04:32:08.180Z,12.30
2023-05-12T04:34:36.387Z,12.40
2023-05-12T04:37:04.513Z,12.50
2023-05-12T04:39:32.657Z,12.50
2023-05-12T04:42:01.914Z,12.60
2023-05-12T04:44:32.157Z,12.70
2023-05-12T04:47:01.371Z,12.80
2023-05-12T04:49:31.273Z,13.00
2023-05-12T04:51:59.410Z,13.20
2023-05-12T04:54:27.429Z,13.30
2023-05-12T04:56:57.035Z,13.50
2023-05-12T04:59:25.293Z,13.70
2023-05-12T05:01:55.393Z,13.90
2023-05-12T05:04:23.629Z,14.10
2023-05-12T05:06:51.810Z,14.20
2023-05-12T05:09:20.536Z,14.40
2023-05-12T05:11:48.588Z,14.50
2023-05-12T05:14:16.629Z,14.60
2023-05-12T05:16:45.484Z,14.70
2023-05-12T05:19:23.306Z,14.70
2023-05-12T05:21:58.254Z,14.70
2023-05-12T05:24:26.312Z,14.70
2023-05-12T05:26:55.547Z,14.70
2023-05-12T05:29:23.686Z,14.70
2023-05-12T05:31:53.321Z,14.70
2023-05-12T05:34:21.487Z,14.60
2023-05-12T05:36:50.349Z,14.60
2023-05-12T05:39:18.465Z,14.60
2023-05-12T05:41:46.856Z,14.60
2023-05-12T05:44:15.332Z,14.70
2023-05-12T05:46:43.670Z,14.70
2023-05-12T05:49:11.717Z,14.70
2023-05-12T05:51:39.812Z,14.70
2023-05-12T05:54:07.875Z,14.70
2023-05-12T05:56:36.501Z,14.80
2023-05-12T05:59:05.600Z,14.90
2023-05-12T06:01:34.175Z,15.00
2023-05-12T06:04:02.751Z,15.20
2023-05-12T06:06:31.014Z,15.30
2023-05-12T06:08:58.997Z,15.40
2023-05-12T06:11:28.172Z,15.70
2023-05-12T06:13:56.133Z,15.90
2023-05-12T06:16:27.384Z,16.20
2023-05-12T06:18:55.588Z,16.50
2023-05-12T06:21:23.622Z,16.90
2023-05-12T06:23:51.987Z,17.20
2023-05-12T06:26:20.148Z,17.60
2023-05-12T06:28:51.203Z,17.90
2023-05-12T06:31:19.328Z,18.30
2023-05-12T06:33:48.768Z,18.50
2023-05-12T06:36:16.883Z,18.70
2023-05-12T06:38:44.857Z,18.50
2023-05-12T06:41:14.636Z,18.50
2023-05-12T06:43:43.834Z,18.70
2023-05-12T06:46:11.982Z,18.80
2023-05-12T06:48:39.976Z,18.80
2023-05-12T06:51:09.011Z,18.70
2023-05-12T06:53:39.806Z,18.60
2023-05-12T06:56:08.117Z,18.60
2023-05-12T06:58:36.720Z,18.80
2023-05-12T07:01:04.752Z,19.30
2023-05-12T07:03:33.765Z,19.60
2023-05-12T07:06:02.037Z,19.90
2023-05-12T07:08:30.095Z,20.10
2023-05-12T07:11:00.306Z,20.30
2023-05-12T07:13:28.453Z,20.80
2023-05-12T07:15:56.481Z,21.30
2023-05-12T07:18:24.517Z,21.90
2023-05-12T07:20:52.797Z,23.00
2023-05-12T07:23:21.082Z,23.60
2023-05-12T07:25:49.147Z,23.50
2023-05-12T07:28:17.166Z,22.90
2023-05-12T07:30:45.278Z,22.30
2023-05-12T07:33:13.368Z,21.90
2023-05-12T07:35:41.400Z,21.60
2023-05-12T07:38:10.057Z,21.40
2023-05-12T07:40:38.122Z,21.40
2023-05-12T07:43:06.385Z,21.80
2023-05-12T07:45:34.338Z,22.70
2023-05-12T07:48:02.617Z,23.80
2023-05-12T07:50:30.756Z,24.40
2023-05-12T07:52:58.669Z,25.20
2023-05-12T07:55:29.886Z,25.60
2023-05-12T07:57:58.020Z,25.60
2023-05-12T08:00:26.314Z,25.00
2023-05-12T08:02:57.315Z,24.50
2023-05-12T08:05:25.569Z,23.90
2023-05-12T08:07:53.562Z,23.80
2023-05-12T08:10:21.624Z,23.30
2023-05-12T08:12:49.541Z,23.20
2023-05-12T08:15:17.907Z,23.30
2023-05-12T08:17:46.079Z,23.40
2023-05-12T08:20:14.417Z,23.50
2023-05-12T08:22:42.643Z,23.30
2023-05-12T08:25:17.155Z,23.40
2023-05-12T08:27:46.002Z,23.60
2023-05-12T08:30:14.197Z,23.60
2023-05-12T08:32:42.228Z,23.40
2023-05-12T08:35:10.405Z,23.00
2023-05-12T08:37:38.653Z,23.00
2023-05-12T08:40:11.449Z,23.50
2023-05-12T08:42:50.703Z,23.50
2023-05-12T08:45:19.442Z,23.40
2023-05-12T08:47:47.763Z,23.40
2023-05-12T08:50:17.738Z,23.80
2023-05-12T08:52:45.779Z,24.00
2023-05-12T08:55:14.008Z,24.20
2023-05-12T08:57:45.979Z,24.10
2023-05-12T09:00:14.664Z,24.00
2023-05-12T09:02:53.185Z,24.30
2023-05-12T09:05:23.189Z,25.10
2023-05-12T09:07:52.336Z,25.70
2023-05-12T09:10:34.617Z,27.00
2023-05-12T09:13:14.669Z,28.00
2023-05-12T09:15:43.982Z,28.20
2023-05-12T09:18:11.991Z,28.40
2023-05-12T09:20:40.069Z,29.50
2023-05-12T09:23:17.978Z,29.50
2023-05-12T09:25:47.312Z,29.20
2023-05-12T09:28:15.751Z,29.40
2023-05-12T09:30:43.836Z,29.00
2023-05-12T09:33:12.864Z,28.60
2023-05-12T09:35:40.919Z,28.40
2023-05-12T09:38:13.065Z,28.00
2023-05-12T09:40:41.529Z,27.80
2023-05-12T09:43:09.546Z,27.70
2023-05-12T09:45:39.290Z,27.70
2023-05-12T09:48:11.628Z,28.30
2023-05-12T09:50:47.658Z,28.20
2023-05-12T09:53:18.270Z,28.00
2023-05-12T09:55:47.304Z,28.10
2023-05-12T09:58:16.152Z,27.70
2023-05-12T10:01:06.542Z,27.60
2023-05-12T10:03:34.340Z,27.80
2023-05-12T10:06:05.122Z,28.00
2023-05-12T10:08:37.675Z,29.00
2023-05-12T10:11:07.194Z,29.60
2023-05-12T10:13:35.524Z,29.40
2023-05-12T10:16:03.722Z,29.30
2023-05-12T10:18:32.031Z,28.80
2023-05-12T10:21:00.501Z,27.90
2023-05-12T10:23:28.996Z,27.90
2023-05-12T10:26:02.320Z,27.30
2023-05-12T10:28:30.502Z,26.60
2023-05-12T10:30:58.832Z,26.40
2023-05-12T10:33:28.043Z,26.30
2023-05-12T10:35:56.295Z,26.00
2023-05-12T10:38:24.362Z,25.90
2023-05-12T10:40:58.272Z,25.70
2023-05-12T10:43:27.968Z,25.50
2023-05-12T10:46:08.249Z,25.30
2023-05-12T10:48:37.082Z,25.50
2023-05-12T10:51:09.117Z,25.30
2023-05-12T10:53:49.274Z,25.20
2023-05-12T10:56:26.227Z,25.20
2023-05-12T10:59:29.918Z,25.30
2023-05-12T11:02:02.107Z,25.20
2023-05-12T11:04:41.146Z,25.10
2023-05-12T11:07:10.116Z,24.90
2023-05-12T11:09:56.073Z,24.50
2023-05-12T11:12:38.280Z,24.30
2023-05-12T11:15:07.340Z,24.20
2023-05-12T11:17:38.867Z,24.10
2023-05-12T11:20:07.553Z,24.00
2023-05-12T11:22:35.671Z,23.70
2023-05-12T11:25:10.678Z,23.60
2023-05-12T11:27:45.174Z,23.30
2023-05-12T11:30:14.071Z,23.30
2023-05-12T11:32:42.644Z,23.30
2023-05-12T11:35:11.761Z,23.20
2023-05-12T11:37:40.738Z,22.80
2023-05-12T11:40:21.524Z,22.80
2023-05-12T11:42:52.664Z,22.70
2023-05-12T11:45:29.123Z,22.70
2023-05-12T11:48:12.012Z,22.70
2023-05-12T11:50:41.731Z,22.50
2023-05-12T11:53:15.197Z,22.40
2023-05-12T11:55:50.671Z,22.10
2023-05-12T11:58:21.289Z,22.00
2023-05-12T12:00:49.585Z,21.80
2023-05-12T12:03:17.787Z,21.70
2023-05-12T12:05:57.994Z,21.60
2023-05-12T12:08:26.162Z,21.70
2023-05-12T12:10:54.229Z,21.60
2023-05-12T12:13:22.929Z,21.70
2023-05-12T12:15:51.467Z,21.60
2023-05-12T12:18:19.573Z,21.60
2023-05-12T12:20:50.305Z,21.80
2023-05-12T12:23:18.324Z,21.70
2023-05-12T12:25:46.303Z,22.00
2023-05-12T12:28:14.430Z,22.30
2023-05-12T12:30:42.455Z,22.70
2023-05-12T12:33:10.627Z,23.20
2023-05-12T12:35:38.637Z,23.70
2023-05-12T12:38:06.594Z,24.30
2023-05-12T12:40:35.626Z,25.30
2023-05-12T12:43:03.705Z,25.60
2023-05-12T12:45:31.667Z,26.40
2023-05-12T12:47:59.811Z,26.40
2023-05-12T12:50:27.820Z,26.00
2023-05-12T12:52:55.769Z,26.20
2023-05-12T12:55:24.468Z,26.60
2023-05-12T12:57:52.613Z,26.80
2023-05-12T13:00:21.186Z,26.90
2023-05-12T13:02:50.063Z,27.20
2023-05-12T13:05:18.535Z,26.80
2023-05-12T13:07:46.742Z,26.40
2023-05-12T13:10:14.770Z,25.70
2023-05-12T13:12:42.900Z,25.80
2023-05-12T13:15:11.303Z,26.00
2023-05-12T13:17:39.447Z,26.80
2023-05-12T13:20:09.169Z,27.10
2023-05-12T13:22:37.174Z,27.50
2023-05-12T13:25:08.043Z,27.40
2023-05-12T13:27:36.576Z,27.00
2023-05-12T13:30:07.849Z,26.60
2023-05-12T13:32:36.119Z,26.20
2023-05-12T13:35:04.884Z,26.10
2023-05-12T13:37:33.060Z,25.80
2023-05-12T13:40:01.133Z,25.40
2023-05-12T13:42:29.239Z,25.30
2023-05-12T13:44:57.261Z,25.00
2023-05-12T13:47:25.518Z,25.20
2023-05-12T13:49:53.481Z,24.90
2023-05-12T13:52:21.499Z,24.70
2023-05-12T13:54:49.636Z,24.50
2023-05-12T13:57:17.876Z,24.50
2023-05-12T13:59:45.866Z,24.30
2023-05-12T14:02:14.881Z,24.20
2023-05-12T14:04:42.959Z,24.00
2023-05-12T14:07:11.004Z,23.90
2023-05-12T14:09:39.087Z,23.80
2023-05-12T14:12:07.590Z,23.80
2023-05-12T14:14:36.812Z,23.30
2023-05-12T14:17:05.103Z,23.10
2023-05-12T14:19:33.261Z,23.10
2023-05-12T14:22:01.245Z,22.80
2023-05-12T14:24:29.397Z,22.80
2023-05-12T14:26:57.743Z,22.60
2023-05-12T14:29:25.799Z,22.30
2023-05-12T14:31:53.810Z,22.30
2023-05-12T14:34:23.777Z,22.10
2023-05-12T14:36:52.123Z,22.10
2023-05-12T14:39:20.061Z,21.90
2023-05-12T14:41:48.242Z,21.70
2023-05-12T14:44:16.433Z,21.60
2023-05-12T14:46:44.355Z,21.70
2023-05-12T14:49:14.554Z,21.50
2023-05-12T14:51:43.807Z,21.30
2023-05-12T14:54:22.149Z,21.20
2023-05-12T14:56:53.458Z,21.10
2023-05-12T14:59:21.491Z,20.90
2023-05-12T15:01:49.765Z,21.00
2023-05-12T15:04:17.885Z,21.00
2023-05-12T15:06:45.948Z,21.00
2023-05-12T15:09:13.900Z,21.10
2023-05-12T15:11:45.019Z,21.10
2023-05-12T15:14:13.263Z,21.00
2023-05-12T15:16:41.397Z,20.90
2023-05-12T15:19:09.515Z,21.00
2023-05-12T15:21:37.733Z,20.70
2023-05-12T15:24:06.827Z,20.60
2023-05-12T15:26:35.766Z,20.60
2023-05-12T15:29:05.334Z,20.40
2023-05-12T15:31:33.362Z,20.40
2023-05-12T15:34:01.335Z,20.40
2023-05-12T15:36:29.977Z,20.20
2023-05-12T15:38:57.950Z,20.10
2023-05-12T15:41:26.181Z,20.20
2023-05-12T15:43:54.125Z,20.00
2023-05-12T15:46:23.228Z,19.80
2023-05-12T15:48:51.280Z,19.50
2023-05-12T15:51:19.475Z,19.40
2023-05-12T15:53:53.593Z,19.40
2023-05-12T15:56:22.524Z,19.20
2023-05-12T15:58:50.470Z,19.20
2023-05-12T16:01:18.791Z,19.10
2023-05-12T16:03:48.125Z,19.00
2023-05-12T16:06:16.285Z,18.90
2023-05-12T16:08:44.504Z,18.80
2023-05-12T16:11:15.255Z,18.70
2023-05-12T16:13:43.666Z,18.60
2023-05-12T16:16:11.823Z,18.60
2023-05-12T16:18:40.619Z,18.40
2023-05-12T16:21:09.929Z,18.20
2023-05-12T16:23:38.091Z,18.20
2023-05-12T16:26:06.129Z,18.10
2023-05-12T16:28:35.079Z,18.10
2023-05-12T16:31:03.845Z,18.00
2023-05-12T16:33:31.764Z,17.90
2023-05-12T16:35:59.746Z,17.90
2023-05-12T16:38:27.896Z,17.80
2023-05-12T16:40:55.884Z,17.60
2023-05-12T16:43:23.915Z,17.70
2023-05-12T16:46:01.757Z,17.70
2023-05-12T16:48:34.680Z,17.60
2023-05-12T16:51:02.875Z,17.60
2023-05-12T16:53:31.445Z,17.60
2023-05-12T16:55:59.575Z,17.50
2023-05-12T16:58:34.041Z,17.40
2023-05-12T17:01:02.272Z,17.40
2023-05-12T17:03:30.368Z,17.30
2023-05-12T17:05:58.788Z,17.20
2023-05-12T17:08:27.423Z,17.10
2023-05-12T17:10:55.378Z,17.10
2023-05-12T17:13:23.655Z,17.00
2023-05-12T17:15:51.754Z,16.90
2023-05-12T17:18:20.087Z,16.90
2023-05-12T17:20:48.097Z,16.90
2023-05-12T17:23:16.121Z,16.80
2023-05-12T17:25:44.120Z,16.70
2023-05-12T17:28:12.162Z,16.60
2023-05-12T17:30:40.176Z,16.60
2023-05-12T17:33:08.883Z,16.50
2023-05-12T17:35:37.157Z,16.40
2023-05-12T17:38:05.684Z,16.40
2023-05-12T17:40:33.698Z,16.30
2023-05-12T17:43:01.669Z,16.30
2023-05-12T17:45:29.676Z,16.20
2023-05-12T17:47:57.796Z,16.20
2023-05-12T17:50:25.805Z,16.10
2023-05-12T17:52:53.995Z,16.00
2023-05-12T17:55:22.464Z,16.00
2023-05-12T17:57:50.817Z,16.00
2023-05-12T18:00:19.009Z,15.90
2023-05-12T18:02:47.377Z,15.80
2023-05-12T18:05:15.387Z,15.80
2023-05-12T18:07:43.444Z,15.80
2023-05-12T18:10:11.923Z,15.70
2023-05-12T18:12:39.974Z,15.60
2023-05-12T18:15:09.132Z,15.60
2023-05-12T18:17:37.172Z,15.60
2023-05-12T18:20:05.699Z,15.60
2023-05-12T18:22:33.820Z,15.60
2023-05-12T18:25:01.747Z,15.50
2023-05-12T18:27:32.843Z,15.40
2023-05-12T18:30:00.916Z,15.40
2023-05-12T18:32:29.010Z,15.30
2023-05-12T18:34:56.945Z,15.20
2023-05-12T18:37:25.285Z,15.20
2023-05-12T18:39:54.794Z,15.10
2023-05-12T18:42:22.872Z,15.10
2023-05-12T18:44:50.899Z,15.10
2023-05-12T18:47:19.018Z,15.00
2023-05-12T18:49:47.233Z,14.90
2023-05-12T18:52:15.153Z,14.70
2023-05-12T18:54:45.199Z,14.60
2023-05-12T18:57:14.423Z,14.60
2023-05-12T18:59:42.380Z,14.40
2023-05-12T19:02:10.773Z,14.40
2023-05-12T19:04:39.369Z,14.30
2023-05-12T19:07:10.119Z,14.20
2023-05-12T19:09:38.375Z,14.10
2023-05-12T19:12:11.195Z,14.20
2023-05-12T19:14:39.929Z,14.20
2023-05-12T19:17:08.245Z,14.20
2023-05-12T19:19:36.248Z,14.20
2023-05-12T19:22:04.776Z,14.20
2023-05-12T19:24:32.875Z,14.20
2023-05-12T19:27:00.856Z,14.10
2023-05-12T19:29:28.929Z,14.10
2023-05-12T19:31:57.024Z,14.10
2023-05-12T19:34:25.488Z,14.00
2023-05-12T19:36:53.737Z,13.90
2023-05-12T19:39:22.195Z,13.80
2023-05-12T19:41:51.979Z,13.70
2023-05-12T19:44:20.036Z,13.60
2023-05-12T19:46:48.119Z,13.50
2023-05-12T19:49:16.289Z,13.40
2023-05-12T19:51:44.237Z,13.30
2023-05-12T19:54:12.388Z,13.30
2023-05-12T19:56:40.364Z,13.30
2023-05-12T19:59:08.307Z,13.20
2023-05-12T20:01:36.302Z,13.10
2023-05-12T20:04:04.335Z,13.00
2023-05-12T20:06:32.456Z,12.90
2023-05-12T20:09:00.425Z,12.80
2023-05-12T20:11:28.390Z,12.80
2023-05-12T20:13:56.402Z,12.70
2023-05-12T20:16:24.709Z,12.70
2023-05-12T20:18:52.916Z,12.60
2023-05-12T20:21:21.016Z,12.60
2023-05-12T20:23:49.197Z,12.50
2023-05-12T20:26:17.156Z,12.50
2023-05-12T20:28:45.107Z,12.30
2023-05-12T20:31:13.173Z,12.30
2023-05-12T20:33:41.650Z,12.20
2023-05-12T20:36:10.020Z,12.20
2023-05-12T20:38:38.304Z,12.10
2023-05-12T20:41:06.925Z,12.10
2023-05-12T20:43:34.910Z,12.00
2023-05-12T20:46:06.236Z,12.00
2023-05-12T20:48:34.328Z,11.90
2023-05-12T20:51:12.361Z,11.80
2023-05-12T20:53:40.519Z,11.80
2023-05-12T20:56:08.824Z,11.80
2023-05-12T20:58:37.017Z,11.70
2023-05-12T21:01:04.996Z,11.70
2023-05-12T21:03:33.720Z,11.60
2023-05-12T21:06:01.841Z,11.50
2023-05-12T21:08:30.025Z,11.50
2023-05-12T21:10:59.858Z,11.40
2023-05-12T21:13:28.187Z,11.40
2023-05-12T21:15:59.377Z,11.30
2023-05-12T21:18:27.391Z,11.30
2023-05-12T21:20:55.454Z,11.30
2023-05-12T21:23:23.542Z,11.20
2023-05-12T21:25:54.260Z,11.10
2023-05-12T21:28:22.682Z,11.10
2023-05-12T21:30:50.595Z,11.00
2023-05-12T21:33:18.737Z,11.00
2023-05-12T21:35:46.744Z,11.00
2023-05-12T21:38:15.135Z,10.90
2023-05-12T21:40:43.085Z,10.90
2023-05-12T21:43:11.192Z,11.00
2023-05-12T21:45:39.321Z,10.90
2023-05-12T21:48:07.468Z,10.90
2023-05-12T21:50:35.530Z,10.80
2023-05-12T21:53:03.552Z,10.70
2023-05-12T21:55:31.650Z,10.70
2023-05-12T21:57:59.614Z,10.70
2023-05-12T22:00:28.048Z,10.60
2023-05-12T22:02:56.306Z,10.60
2023-05-12T22:05:24.538Z,10.60
2023-05-12T22:07:52.693Z,10.50
2023-05-12T22:10:21.473Z,10.40
2023-05-12T22:12:49.766Z,10.40
2023-05-12T22:15:18.698Z,10.30
2023-05-12T22:17:46.975Z,10.30
2023-05-12T22:20:15.049Z,10.30
2023-05-12T22:22:43.116Z,10.30
2023-05-12T22:25:11.589Z,10.30
2023-05-12T22:27:39.632Z,10.30
2023-05-12T22:30:08.177Z,10.30
2023-05-12T22:32:36.121Z,10.30
2023-05-12T22:35:04.359Z,10.30
2023-05-12T22:37:32.621Z,10.20
2023-05-12T22:40:00.749Z,10.20
2023-05-12T22:42:28.725Z,10.20
2023-05-12T22:44:57.870Z,10.20
2023-05-12T22:47:25.945Z,10.20
2023-05-12T22:49:53.911Z,10.10
2023-05-12T22:52:21.883Z,10.10
2023-05-12T22:54:54.197Z,10.10
2023-05-12T22:57:22.439Z,10.00
2023-05-12T22:59:50.579Z,10.00
2023-05-12T23:02:18.547Z,9.90
2023-05-12T23:04:47.055Z,9.90
2023-05-12T23:07:14.977Z,9.80
2023-05-12T23:09:43.034Z,9.80
2023-05-12T23:12:10.967Z,9.70
2023-05-12T23:14:39.088Z,9.70
2023-05-12T23:17:07.215Z,9.70
2023-05-12T23:19:35.734Z,9.70
2023-05-12T23:22:03.930Z,9.50
2023-05-12T23:24:32.030Z,9.60
2023-05-12T23:27:00.051Z,9.60
2023-05-12T23:29:28.220Z,9.70
2023-05-12T23:31:56.877Z,9.60
2023-05-12T23:34:25.030Z,9.60
2023-05-12T23:36:52.950Z,9.60
2023-05-12T23:39:21.371Z,9.60
2023-05-12T23:41:50.023Z,9.60
2023-05-12T23:44:18.048Z,9.60
2023-05-12T23:46:46.163Z,9.60
2023-05-12T23:49:14.130Z,9.60
2023-05-12T23:51:42.115Z,9.60
2023-05-12T23:54:10.127Z,9.60
2023-05-12T23:56:38.049Z,9.60
2023-05-12T23:59:06.490Z,9.60
